createdAt,value
2018-08-10T00:00:58.184Z,26.44
2018-08-10T00:02:07.602Z,26.36
2018-08-10T00:03:17.268Z,26.4
2018-08-10T00:04:26.676Z,26.43
2018-08-10T00:05:35.591Z,26.39
2018-08-10T00:06:45.519Z,26.33
2018-08-10T00:07:54.959Z,26.43
2018-08-10T00:09:03.864Z,26.39
2018-08-10T00:10:13.276Z,26.37
2018-08-10T00:11:22.194Z,26.39
2018-08-10T00:12:31.337Z,26.33
2018-08-10T00:13:40.741Z,26.36
2018-08-10T00:14:49.911Z,26.4
2018-08-10T00:15:59.324Z,26.43
2018-08-10T00:17:08.483Z,26.45
2018-08-10T00:18:18.158Z,26.44
2018-08-10T00:19:28.085Z,26.45
2018-08-10T00:20:37.267Z,26.37
2018-08-10T00:21:46.938Z,26.37
2018-08-10T00:22:56.119Z,26.45
2018-08-10T00:24:05.514Z,26.39
2018-08-10T00:25:15.195Z,26.47
2018-08-10T00:26:24.859Z,26.43
2018-08-10T00:27:34.023Z,26.43
2018-08-10T00:28:43.198Z,26.44
2018-08-10T00:29:52.350Z,26.47
2018-08-10T00:31:01.792Z,26.45
2018-08-10T00:32:11.714Z,26.44
2018-08-10T00:33:20.863Z,26.48
2018-08-10T00:34:30.566Z,26.44
2018-08-10T00:35:39.459Z,26.36
2018-08-10T00:36:48.625Z,26.39
2018-08-10T00:37:58.555Z,26.36
2018-08-10T00:39:07.447Z,26.36
2018-08-10T00:40:17.112Z,26.37
2018-08-10T00:41:26.542Z,26.35
2018-08-10T00:42:35.959Z,26.35
2018-08-10T00:43:45.124Z,26.28
2018-08-10T00:44:54.538Z,26.26
2018-08-10T00:46:03.989Z,26.25
2018-08-10T00:47:12.875Z,26.33
2018-08-10T00:48:21.768Z,26.29
2018-08-10T00:49:31.189Z,26.3
2018-08-10T00:50:40.370Z,26.26
2018-08-10T00:51:49.520Z,26.26
2018-08-10T00:52:59.437Z,26.29
2018-08-10T00:54:09.121Z,26.26
2018-08-10T00:55:18.802Z,26.33
2018-08-10T00:56:27.711Z,26.33
2018-08-10T00:57:36.635Z,26.3
2018-08-10T00:58:46.074Z,26.33
2018-08-10T00:59:55.470Z,26.26
2018-08-10T01:01:04.659Z,26.3
2018-08-10T01:02:13.814Z,26.21
2018-08-10T01:03:23.234Z,26.28
2018-08-10T01:04:31.917Z,26.29
2018-08-10T01:05:41.092Z,26.21
2018-08-10T01:06:50.494Z,26.29
2018-08-10T01:07:59.381Z,26.25
2018-08-10T01:09:09.053Z,26.33
2018-08-10T01:10:18.215Z,26.33
2018-08-10T01:11:27.870Z,26.32
2018-08-10T01:12:37.529Z,26.3
2018-08-10T01:13:46.733Z,26.29
2018-08-10T01:14:56.408Z,26.3
2018-08-10T01:16:05.580Z,26.28
2018-08-10T01:17:15.006Z,26.25
2018-08-10T01:18:24.462Z,26.23
2018-08-10T01:19:34.319Z,26.3
2018-08-10T01:20:43.721Z,26.2
2018-08-10T01:21:53.403Z,26.21
2018-08-10T01:23:02.572Z,26.28
2018-08-10T01:24:12.248Z,26.21
2018-08-10T01:25:21.672Z,26.17
2018-08-10T01:26:30.832Z,26.09
2018-08-10T01:27:40.497Z,26.13
2018-08-10T01:28:50.348Z,26.13
2018-08-10T01:30:00.022Z,26.12
2018-08-10T01:31:09.700Z,25.97
2018-08-10T01:32:18.597Z,26.01
2018-08-10T01:33:28.038Z,26.05
2018-08-10T01:34:37.189Z,25.95
2018-08-10T01:35:46.614Z,26.01
2018-08-10T01:36:56.042Z,25.99
2018-08-10T01:38:05.983Z,26.07
2018-08-10T01:39:15.161Z,25.99
2018-08-10T01:40:24.581Z,25.97
2018-08-10T01:41:34.055Z,25.98
2018-08-10T01:42:43.723Z,26.01
2018-08-10T01:43:53.392Z,25.99
2018-08-10T01:45:02.788Z,26.06
2018-08-10T01:46:12.440Z,25.97
2018-08-10T01:47:21.609Z,25.91
2018-08-10T01:48:31.020Z,26.05
2018-08-10T01:49:40.434Z,26.02
2018-08-10T01:50:50.110Z,26.02
2018-08-10T01:51:59.541Z,25.94
2018-08-10T01:53:08.950Z,25.99
2018-08-10T01:54:18.123Z,26.01
2018-08-10T01:55:27.519Z,25.99
2018-08-10T01:56:36.673Z,26.05
2018-08-10T01:57:45.821Z,25.94
2018-08-10T01:58:55.079Z,25.97
2018-08-10T02:00:04.740Z,25.98
2018-08-10T02:01:13.691Z,25.92
2018-08-10T02:02:22.582Z,25.99
2018-08-10T02:03:31.990Z,26.01
2018-08-10T02:04:41.386Z,25.95
2018-08-10T02:05:51.054Z,26.09
2018-08-10T02:06:59.684Z,25.97
2018-08-10T02:08:08.912Z,26.09
2018-08-10T02:09:17.831Z,25.92
2018-08-10T02:10:27.497Z,26.09
2018-08-10T02:11:36.650Z,26.09
2018-08-10T02:12:46.054Z,26.05
2018-08-10T02:13:55.201Z,25.99
2018-08-10T02:15:04.654Z,25.98
2018-08-10T02:16:14.331Z,26.07
2018-08-10T02:17:24.020Z,25.98
2018-08-10T02:18:33.709Z,25.94
2018-08-10T02:19:43.155Z,25.97
2018-08-10T02:20:52.353Z,25.97
2018-08-10T02:22:01.756Z,25.97
2018-08-10T02:23:11.179Z,25.98
2018-08-10T02:24:20.077Z,25.92
2018-08-10T02:25:29.521Z,25.95
2018-08-10T02:26:38.672Z,25.95
2018-08-10T02:27:48.367Z,26.02
2018-08-10T02:28:58.036Z,25.91
2018-08-10T02:30:07.442Z,25.94
2018-08-10T02:31:17.126Z,25.92
2018-08-10T02:32:27.069Z,25.92
2018-08-10T02:33:37.007Z,25.95
2018-08-10T02:34:46.686Z,25.92
2018-08-10T02:35:56.121Z,25.9
2018-08-10T02:37:05.544Z,25.92
2018-08-10T02:38:15.498Z,25.94
2018-08-10T02:39:24.908Z,25.99
2018-08-10T02:40:34.312Z,25.92
2018-08-10T02:41:44.279Z,25.92
2018-08-10T02:42:54.215Z,25.94
2018-08-10T02:44:03.361Z,25.98
2018-08-10T02:45:13.152Z,25.92
2018-08-10T02:46:22.851Z,25.91
2018-08-10T02:47:32.271Z,25.95
2018-08-10T02:48:41.947Z,25.95
2018-08-10T02:49:51.626Z,25.94
2018-08-10T02:51:01.026Z,25.94
2018-08-10T02:52:10.483Z,25.94
2018-08-10T02:53:20.146Z,25.95
2018-08-10T02:54:29.575Z,25.98
2018-08-10T02:55:39.877Z,25.97
2018-08-10T02:56:49.316Z,25.92
2018-08-10T02:57:58.971Z,25.97
2018-08-10T02:59:08.640Z,25.92
2018-08-10T03:00:17.792Z,25.97
2018-08-10T03:01:27.003Z,25.98
2018-08-10T03:02:36.410Z,25.91
2018-08-10T03:03:45.852Z,25.95
2018-08-10T03:04:55.777Z,25.97
2018-08-10T03:06:05.458Z,25.95
2018-08-10T03:07:15.144Z,25.95
2018-08-10T03:08:24.823Z,25.99
2018-08-10T03:09:34.516Z,25.95
2018-08-10T03:10:43.939Z,25.95
2018-08-10T03:11:53.622Z,25.95
2018-08-10T03:13:03.302Z,25.95
2018-08-10T03:14:13.005Z,25.97
2018-08-10T03:15:22.690Z,25.95
2018-08-10T03:16:31.866Z,25.95
2018-08-10T03:17:41.535Z,25.92
2018-08-10T03:18:50.954Z,25.92
2018-08-10T03:20:00.654Z,25.94
2018-08-10T03:21:09.550Z,25.91
2018-08-10T03:22:18.911Z,25.92
2018-08-10T03:23:28.164Z,25.94
2018-08-10T03:24:37.582Z,25.91
2018-08-10T03:25:47.011Z,25.88
2018-08-10T03:26:56.950Z,25.91
2018-08-10T03:28:06.658Z,25.92
2018-08-10T03:29:16.321Z,25.87
2018-08-10T03:30:26.004Z,25.92
2018-08-10T03:31:35.427Z,25.92
2018-08-10T03:32:45.096Z,25.87
2018-08-10T03:33:54.252Z,25.91
2018-08-10T03:35:04.169Z,25.92
2018-08-10T03:36:13.336Z,25.87
2018-08-10T03:37:21.978Z,25.97
2018-08-10T03:38:30.944Z,25.94
2018-08-10T03:39:40.600Z,25.95
2018-08-10T03:40:50.285Z,25.91
2018-08-10T03:41:59.958Z,25.92
2018-08-10T03:43:09.389Z,25.94
2018-08-10T03:44:18.833Z,25.95
2018-08-10T03:45:28.551Z,26.01
2018-08-10T03:46:37.949Z,25.98
2018-08-10T03:47:47.118Z,25.92
2018-08-10T03:48:56.276Z,26.01
2018-08-10T03:50:05.192Z,26.05
2018-08-10T03:51:14.645Z,26.01
2018-08-10T03:52:23.789Z,26.02
2018-08-10T03:53:33.214Z,25.97
2018-08-10T03:54:42.368Z,26.02
2018-08-10T03:55:52.032Z,25.97
2018-08-10T03:57:01.711Z,26.13
2018-08-10T03:58:10.603Z,26.01
2018-08-10T03:59:20.283Z,25.97
2018-08-10T04:00:29.792Z,25.94
2018-08-10T04:01:39.725Z,25.97
2018-08-10T04:02:49.160Z,25.91
2018-08-10T04:03:58.580Z,25.92
2018-08-10T04:05:07.822Z,26.01
2018-08-10T04:06:17.234Z,26.01
2018-08-10T04:07:27.334Z,26.06
2018-08-10T04:08:36.223Z,25.97
2018-08-10T04:09:45.640Z,25.98
2018-08-10T04:10:55.558Z,26.05
2018-08-10T04:12:04.938Z,25.99
2018-08-10T04:13:14.616Z,25.94
2018-08-10T04:14:24.049Z,26.02
2018-08-10T04:15:32.963Z,25.98
2018-08-10T04:16:42.369Z,26.1
2018-08-10T04:17:52.046Z,25.99
2018-08-10T04:19:01.217Z,25.97
2018-08-10T04:20:11.045Z,26.02
2018-08-10T04:21:20.305Z,26.06
2018-08-10T04:22:29.526Z,26.01
2018-08-10T04:23:38.958Z,26.01
2018-08-10T04:24:48.445Z,25.98
2018-08-10T04:25:58.289Z,25.97
2018-08-10T04:27:07.954Z,26.01
2018-08-10T04:28:17.619Z,26.01
2018-08-10T04:29:27.105Z,26.07
2018-08-10T04:30:37.190Z,26.01
2018-08-10T04:31:46.334Z,26.06
2018-08-10T04:32:55.890Z,26.07
2018-08-10T04:34:05.318Z,25.92
2018-08-10T04:35:14.208Z,25.94
2018-08-10T04:36:23.635Z,25.97
2018-08-10T04:37:33.387Z,25.94
2018-08-10T04:38:43.034Z,25.97
2018-08-10T04:39:52.534Z,25.9
2018-08-10T04:41:02.215Z,25.91
2018-08-10T04:42:11.936Z,25.9
2018-08-10T04:43:21.666Z,25.92
2018-08-10T04:44:30.828Z,25.98
2018-08-10T04:45:40.779Z,25.94
2018-08-10T04:46:50.216Z,25.97
2018-08-10T04:47:59.111Z,25.95
2018-08-10T04:49:09.184Z,25.97
2018-08-10T04:50:18.346Z,25.95
2018-08-10T04:51:27.773Z,25.95
2018-08-10T04:52:37.435Z,25.98
2018-08-10T04:53:46.858Z,25.94
2018-08-10T04:54:56.285Z,25.95
2018-08-10T04:56:06.084Z,25.95
2018-08-10T04:57:15.244Z,25.95
2018-08-10T04:58:24.915Z,25.97
2018-08-10T04:59:34.084Z,25.95
2018-08-10T05:00:43.501Z,25.99
2018-08-10T05:01:52.657Z,25.94
2018-08-10T05:03:02.112Z,26.02
2018-08-10T05:04:11.285Z,26.06
2018-08-10T05:05:20.428Z,25.99
2018-08-10T05:06:29.849Z,26.01
2018-08-10T05:07:38.746Z,26.12
2018-08-10T05:08:48.415Z,25.99
2018-08-10T05:09:58.044Z,25.97
2018-08-10T05:11:07.698Z,25.99
2018-08-10T05:12:17.117Z,25.99
2018-08-10T05:13:26.014Z,26.15
2018-08-10T05:14:35.453Z,26.09
2018-08-10T05:15:44.490Z,26.13
2018-08-10T05:16:54.136Z,26.17
2018-08-10T05:18:03.562Z,26.1
2018-08-10T05:19:12.991Z,26.21
2018-08-10T05:20:22.135Z,26.25
2018-08-10T05:21:31.795Z,26.23
2018-08-10T05:22:40.946Z,26.26
2018-08-10T05:23:49.853Z,26.29
2018-08-10T05:24:59.014Z,26.33
2018-08-10T05:26:08.441Z,26.26
2018-08-10T05:27:18.127Z,26.28
2018-08-10T05:28:27.542Z,26.26
2018-08-10T05:29:36.953Z,26.32
2018-08-10T05:30:45.857Z,26.37
2018-08-10T05:31:55.012Z,26.33
2018-08-10T05:33:04.430Z,26.37
2018-08-10T05:34:13.860Z,26.36
2018-08-10T05:35:23.008Z,26.37
2018-08-10T05:36:32.423Z,26.4
2018-08-10T05:37:41.343Z,26.47
2018-08-10T05:38:50.767Z,26.47
2018-08-10T05:40:00.192Z,26.37
2018-08-10T05:41:09.359Z,26.44
2018-08-10T05:42:18.535Z,26.45
2018-08-10T05:43:27.963Z,26.45
2018-08-10T05:44:37.383Z,26.45
2018-08-10T05:45:46.797Z,26.51
2018-08-10T05:46:57.179Z,26.5
2018-08-10T05:48:07.319Z,26.52
2018-08-10T05:49:17.284Z,26.52
2018-08-10T05:50:26.719Z,26.5
2018-08-10T05:51:35.612Z,26.6
2018-08-10T05:52:45.288Z,26.62
2018-08-10T05:53:54.441Z,26.55
2018-08-10T05:55:04.125Z,26.52
2018-08-10T05:56:13.546Z,26.5
2018-08-10T05:57:23.543Z,26.54
2018-08-10T05:58:32.975Z,26.62
2018-08-10T05:59:42.379Z,26.6
2018-08-10T06:00:52.603Z,26.6
2018-08-10T06:02:01.774Z,26.62
2018-08-10T06:03:10.996Z,26.57
2018-08-10T06:04:20.760Z,26.58
2018-08-10T06:05:30.207Z,26.63
2018-08-10T06:06:39.619Z,26.65
2018-08-10T06:07:49.024Z,26.57
2018-08-10T06:08:58.442Z,26.57
2018-08-10T06:10:07.861Z,26.57
2018-08-10T06:11:17.271Z,26.52
2018-08-10T06:12:27.122Z,26.57
2018-08-10T06:13:36.532Z,26.63
2018-08-10T06:14:45.177Z,26.62
2018-08-10T06:15:54.323Z,26.6
2018-08-10T06:17:03.730Z,26.58
2018-08-10T06:18:13.145Z,26.65
2018-08-10T06:19:22.715Z,26.66
2018-08-10T06:20:32.473Z,26.65
2018-08-10T06:21:42.053Z,26.65
2018-08-10T06:22:51.362Z,26.65
2018-08-10T06:24:01.014Z,26.58
2018-08-10T06:25:11.096Z,26.62
2018-08-10T06:26:19.893Z,26.58
2018-08-10T06:27:29.317Z,26.63
2018-08-10T06:28:38.711Z,26.77
2018-08-10T06:29:47.900Z,26.73
2018-08-10T06:30:57.081Z,26.69
2018-08-10T06:32:06.788Z,26.8
2018-08-10T06:33:16.452Z,26.7
2018-08-10T06:34:25.865Z,26.7
2018-08-10T06:35:35.032Z,26.81
2018-08-10T06:36:44.184Z,26.8
2018-08-10T06:37:53.093Z,26.82
2018-08-10T06:39:02.368Z,26.73
2018-08-10T06:40:12.331Z,26.81
2018-08-10T06:41:22.008Z,26.8
2018-08-10T06:42:30.912Z,26.8
2018-08-10T06:43:40.050Z,26.76
2018-08-10T06:44:49.682Z,26.72
2018-08-10T06:45:59.103Z,26.75
2018-08-10T06:47:08.535Z,26.72
2018-08-10T06:48:18.396Z,26.76
2018-08-10T06:49:27.547Z,26.75
2018-08-10T06:50:37.064Z,26.81
2018-08-10T06:51:46.221Z,26.87
2018-08-10T06:52:55.391Z,26.84
2018-08-10T06:54:04.561Z,26.88
2018-08-10T06:55:13.755Z,26.87
2018-08-10T06:56:22.655Z,26.84
2018-08-10T06:57:32.080Z,26.85
2018-08-10T06:58:41.484Z,26.82
2018-08-10T06:59:50.890Z,26.85
2018-08-10T07:01:00.254Z,26.82
2018-08-10T07:02:10.374Z,26.85
2018-08-10T07:03:19.569Z,26.89
2018-08-10T07:04:28.983Z,26.84
2018-08-10T07:05:38.703Z,26.87
2018-08-10T07:06:47.918Z,26.82
2018-08-10T07:07:57.155Z,26.85
2018-08-10T07:09:06.620Z,26.85
2018-08-10T07:10:16.329Z,26.87
2018-08-10T07:11:25.760Z,26.87
2018-08-10T07:12:35.438Z,26.87
2018-08-10T07:13:45.482Z,26.87
2018-08-10T07:14:54.654Z,26.94
2018-08-10T07:16:04.355Z,26.85
2018-08-10T07:17:13.751Z,26.92
2018-08-10T07:18:23.686Z,26.82
2018-08-10T07:19:33.112Z,26.92
2018-08-10T07:20:42.287Z,26.89
2018-08-10T07:21:50.933Z,26.88
2018-08-10T07:23:00.612Z,26.95
2018-08-10T07:24:10.010Z,26.91
2018-08-10T07:25:19.191Z,26.94
2018-08-10T07:26:28.109Z,26.97
2018-08-10T07:27:37.276Z,26.94
2018-08-10T07:28:46.446Z,26.97
2018-08-10T07:29:55.856Z,26.94
2018-08-10T07:31:05.046Z,26.97
2018-08-10T07:32:14.720Z,26.97
2018-08-10T07:33:23.675Z,26.91
2018-08-10T07:34:33.079Z,26.97
2018-08-10T07:35:42.815Z,26.94
2018-08-10T07:36:52.492Z,27
2018-08-10T07:38:01.389Z,26.99
2018-08-10T07:39:11.063Z,26.97
2018-08-10T07:40:20.239Z,27
2018-08-10T07:41:29.390Z,27.02
2018-08-10T07:42:38.563Z,27.02
2018-08-10T07:43:47.984Z,26.92
2018-08-10T07:44:57.912Z,27
2018-08-10T07:46:07.078Z,26.97
2018-08-10T07:47:16.252Z,26.94
2018-08-10T07:48:25.670Z,26.97
2018-08-10T07:49:35.072Z,27.03
2018-08-10T07:50:44.220Z,26.97
2018-08-10T07:51:53.397Z,27.04
2018-08-10T07:53:03.129Z,27
2018-08-10T07:54:12.275Z,26.99
2018-08-10T07:55:21.936Z,27.03
2018-08-10T07:56:31.863Z,27
2018-08-10T07:57:41.274Z,27.04
2018-08-10T07:58:50.420Z,27.03
2018-08-10T07:59:59.578Z,26.99
2018-08-10T08:01:08.992Z,26.99
2018-08-10T08:02:18.954Z,26.95
2018-08-10T08:03:28.544Z,27.07
2018-08-10T08:04:38.224Z,27.03
2018-08-10T08:05:47.628Z,27.06
2018-08-10T08:06:56.894Z,27.04
2018-08-10T08:08:06.064Z,27.04
2018-08-10T08:09:15.019Z,27.02
2018-08-10T08:10:24.267Z,27.04
2018-08-10T08:11:34.097Z,27
2018-08-10T08:12:43.295Z,27.02
2018-08-10T08:13:53.504Z,26.99
2018-08-10T08:15:02.410Z,27.03
2018-08-10T08:16:12.343Z,27.12
2018-08-10T08:17:21.234Z,27
2018-08-10T08:18:30.641Z,27.09
2018-08-10T08:19:40.206Z,27.09
2018-08-10T08:20:50.360Z,27.06
2018-08-10T08:21:59.514Z,27.07
2018-08-10T08:23:09.195Z,27.12
2018-08-10T08:24:19.139Z,27.14
2018-08-10T08:25:28.541Z,27.04
2018-08-10T08:26:37.178Z,27.12
2018-08-10T08:27:45.831Z,27.07
2018-08-10T08:28:54.761Z,27.06
2018-08-10T08:30:04.181Z,27.12
2018-08-10T08:31:13.093Z,27.07
2018-08-10T08:32:22.251Z,27.12
2018-08-10T08:33:31.145Z,27.07
2018-08-10T08:34:40.786Z,27.04
2018-08-10T08:35:50.624Z,27.12
2018-08-10T08:37:00.803Z,27.07
2018-08-10T08:38:10.985Z,27.13
2018-08-10T08:39:20.257Z,27.13
2018-08-10T08:40:29.410Z,27.14
2018-08-10T08:41:39.057Z,27.12
2018-08-10T08:42:48.734Z,27.06
2018-08-10T08:43:57.701Z,27.14
2018-08-10T08:45:07.384Z,27.1
2018-08-10T08:46:17.887Z,27.14
2018-08-10T08:47:27.872Z,27.13
2018-08-10T08:48:37.288Z,27.14
2018-08-10T08:49:46.450Z,27.1
2018-08-10T08:50:55.870Z,27.14
2018-08-10T08:52:05.565Z,27.14
2018-08-10T08:53:14.737Z,27.17
2018-08-10T08:54:23.903Z,27.12
2018-08-10T08:55:33.599Z,27.14
2018-08-10T08:56:42.503Z,27.13
2018-08-10T08:57:51.430Z,27.13
2018-08-10T08:59:00.876Z,27.17
2018-08-10T09:00:10.039Z,27.17
2018-08-10T09:01:19.702Z,27.22
2018-08-10T09:02:28.847Z,27.18
2018-08-10T09:03:38.530Z,27.12
2018-08-10T09:04:47.697Z,27.17
2018-08-10T09:05:57.615Z,27.13
2018-08-10T09:07:07.037Z,27.18
2018-08-10T09:08:16.598Z,27.13
2018-08-10T09:09:26.020Z,27.21
2018-08-10T09:10:34.937Z,27.13
2018-08-10T09:11:44.340Z,27.22
2018-08-10T09:12:53.764Z,27.19
2018-08-10T09:14:02.947Z,27.13
2018-08-10T09:15:12.119Z,27.18
2018-08-10T09:16:21.536Z,27.24
2018-08-10T09:17:31.661Z,27.18
2018-08-10T09:18:41.344Z,27.21
2018-08-10T09:19:50.493Z,27.17
2018-08-10T09:20:59.646Z,27.12
2018-08-10T09:22:09.296Z,27.14
2018-08-10T09:23:18.829Z,27.13
2018-08-10T09:24:28.254Z,27.21
2018-08-10T09:25:37.878Z,27.12
2018-08-10T09:26:47.290Z,27.19
2018-08-10T09:27:56.445Z,27.14
2018-08-10T09:29:05.855Z,27.19
2018-08-10T09:30:15.548Z,27.24
2018-08-10T09:31:24.731Z,27.17
2018-08-10T09:32:34.392Z,27.22
2018-08-10T09:33:43.587Z,27.21
2018-08-10T09:34:52.783Z,27.21
2018-08-10T09:36:01.960Z,27.18
2018-08-10T09:37:11.415Z,27.19
2018-08-10T09:38:20.821Z,27.19
2018-08-10T09:39:30.023Z,27.18
2018-08-10T09:40:39.460Z,27.19
2018-08-10T09:41:49.387Z,27.18
2018-08-10T09:42:59.249Z,27.18
2018-08-10T09:44:08.661Z,27.27
2018-08-10T09:45:18.466Z,27.19
2018-08-10T09:46:28.371Z,27.22
2018-08-10T09:47:37.261Z,27.25
2018-08-10T09:48:46.936Z,27.31
2018-08-10T09:49:56.347Z,27.24
2018-08-10T09:51:05.515Z,27.21
2018-08-10T09:52:15.206Z,27.24
2018-08-10T09:53:24.614Z,27.19
2018-08-10T09:54:34.017Z,27.21
2018-08-10T09:55:43.179Z,27.27
2018-08-10T09:56:52.328Z,27.24
2018-08-10T09:58:01.548Z,27.24
2018-08-10T09:59:10.463Z,27.22
2018-08-10T10:00:19.876Z,27.24
2018-08-10T10:01:29.627Z,27.28
2018-08-10T10:02:39.054Z,27.28
2018-08-10T10:03:48.233Z,27.18
2018-08-10T10:04:57.896Z,27.28
2018-08-10T10:06:07.331Z,27.24
2018-08-10T10:07:16.479Z,27.24
2018-08-10T10:08:25.916Z,27.24
2018-08-10T10:09:35.080Z,27.25
2018-08-10T10:10:45.026Z,27.29
2018-08-10T10:11:54.431Z,27.19
2018-08-10T10:13:04.124Z,27.24
2018-08-10T10:14:13.534Z,27.28
2018-08-10T10:15:22.749Z,27.24
2018-08-10T10:16:31.641Z,27.24
2018-08-10T10:17:40.817Z,27.21
2018-08-10T10:18:50.274Z,27.21
2018-08-10T10:19:58.936Z,27.25
2018-08-10T10:21:08.342Z,27.22
2018-08-10T10:22:17.970Z,27.27
2018-08-10T10:23:27.131Z,27.25
2018-08-10T10:24:36.286Z,27.29
2018-08-10T10:25:45.224Z,27.21
2018-08-10T10:26:54.390Z,27.22
2018-08-10T10:28:04.321Z,27.27
2018-08-10T10:29:13.481Z,27.27
2018-08-10T10:30:23.152Z,27.29
2018-08-10T10:31:32.554Z,27.29
2018-08-10T10:32:41.757Z,27.21
2018-08-10T10:33:51.367Z,27.19
2018-08-10T10:35:00.265Z,27.29
2018-08-10T10:36:09.436Z,27.29
2018-08-10T10:37:18.854Z,27.31
2018-08-10T10:38:28.540Z,27.25
2018-08-10T10:39:37.971Z,27.21
2018-08-10T10:40:47.386Z,27.24
2018-08-10T10:41:56.554Z,27.22
2018-08-10T10:43:06.233Z,27.21
2018-08-10T10:44:15.654Z,27.28
2018-08-10T10:45:24.826Z,27.25
2018-08-10T10:46:34.276Z,27.21
2018-08-10T10:47:43.940Z,27.29
2018-08-10T10:48:53.613Z,27.24
2018-08-10T10:50:02.774Z,27.22
2018-08-10T10:51:11.936Z,27.22
2018-08-10T10:52:20.836Z,27.21
2018-08-10T10:53:30.533Z,27.18
2018-08-10T10:54:39.744Z,27.21
2018-08-10T10:55:48.906Z,27.21
2018-08-10T10:56:58.795Z,27.28
2018-08-10T10:58:08.837Z,27.25
2018-08-10T10:59:18.246Z,27.32
2018-08-10T11:00:27.650Z,27.27
2018-08-10T11:01:36.611Z,27.18
2018-08-10T11:02:45.781Z,27.18
2018-08-10T11:03:55.211Z,27.31
2018-08-10T11:05:04.635Z,27.28
2018-08-10T11:06:14.390Z,27.22
2018-08-10T11:07:23.687Z,27.29
2018-08-10T11:08:33.179Z,27.28
2018-08-10T11:09:42.859Z,27.31
2018-08-10T11:10:52.265Z,27.31
2018-08-10T11:12:01.959Z,27.28
2018-08-10T11:13:10.859Z,27.34
2018-08-10T11:14:20.033Z,27.27
2018-08-10T11:15:29.462Z,27.25
2018-08-10T11:16:39.152Z,27.18
2018-08-10T11:17:48.827Z,27.36
2018-08-10T11:18:58.764Z,27.29
2018-08-10T11:20:07.957Z,27.32
2018-08-10T11:21:17.374Z,27.29
2018-08-10T11:22:27.044Z,27.32
2018-08-10T11:23:36.451Z,27.22
2018-08-10T11:24:45.852Z,27.31
2018-08-10T11:25:56.127Z,27.31
2018-08-10T11:27:06.253Z,27.32
2018-08-10T11:28:15.150Z,27.24
2018-08-10T11:29:24.819Z,27.18
2018-08-10T11:30:33.765Z,27.34
2018-08-10T11:31:43.183Z,27.31
2018-08-10T11:32:52.598Z,27.31
2018-08-10T11:34:01.252Z,27.31
2018-08-10T11:35:10.941Z,27.29
2018-08-10T11:36:20.107Z,27.29
2018-08-10T11:37:29.533Z,27.28
2018-08-10T11:38:38.694Z,27.32
2018-08-10T11:39:47.335Z,27.17
2018-08-10T11:40:56.741Z,27.34
2018-08-10T11:42:06.142Z,27.27
2018-08-10T11:43:16.076Z,27.27
2018-08-10T11:44:25.507Z,27.28
2018-08-10T11:45:34.909Z,27.34
2018-08-10T11:46:44.308Z,27.18
2018-08-10T11:47:52.967Z,27.36
2018-08-10T11:49:02.376Z,27.37
2018-08-10T11:50:12.716Z,27.37
2018-08-10T11:51:21.972Z,27.34
2018-08-10T11:52:31.741Z,27.19
2018-08-10T11:53:41.640Z,27.19
2018-08-10T11:54:50.796Z,27.22
2018-08-10T11:56:00.473Z,27.37
2018-08-10T11:57:09.647Z,27.27
2018-08-10T11:58:18.843Z,27.27
2018-08-10T11:59:28.277Z,27.34
2018-08-10T12:00:37.701Z,27.19
2018-08-10T12:01:47.263Z,27.34
2018-08-10T12:02:57.372Z,27.22
2018-08-10T12:04:07.479Z,27.22
2018-08-10T12:05:16.637Z,27.36
2018-08-10T12:06:26.253Z,27.22
2018-08-10T12:07:35.679Z,27.25
2018-08-10T12:08:44.817Z,27.24
2018-08-10T12:09:53.960Z,27.34
2018-08-10T12:11:03.628Z,27.28
2018-08-10T12:12:13.356Z,27.22
2018-08-10T12:13:22.517Z,27.32
2018-08-10T12:14:31.671Z,27.28
2018-08-10T12:15:41.077Z,27.27
2018-08-10T12:16:50.236Z,27.31
2018-08-10T12:17:59.637Z,27.24
2018-08-10T12:19:09.276Z,27.31
2018-08-10T12:20:19.422Z,27.24
2018-08-10T12:21:29.089Z,27.27
2018-08-10T12:22:38.798Z,27.31
2018-08-10T12:23:48.220Z,27.21
2018-08-10T12:24:57.410Z,27.22
2018-08-10T12:26:07.084Z,27.22
2018-08-10T12:27:16.502Z,27.25
2018-08-10T12:28:25.652Z,27.25
2018-08-10T12:29:34.805Z,27.39
2018-08-10T12:30:44.477Z,27.29
2018-08-10T12:31:54.427Z,27.32
2018-08-10T12:33:03.572Z,27.27
2018-08-10T12:34:12.501Z,27.37
2018-08-10T12:35:21.429Z,27.34
2018-08-10T12:36:30.578Z,27.36
2018-08-10T12:37:39.999Z,27.36
2018-08-10T12:38:49.153Z,27.24
2018-08-10T12:39:58.831Z,27.36
2018-08-10T12:41:07.979Z,27.25
2018-08-10T12:42:16.868Z,27.4
2018-08-10T12:43:25.758Z,27.31
2018-08-10T12:44:35.189Z,27.32
2018-08-10T12:45:44.592Z,27.25
2018-08-10T12:46:53.754Z,27.36
2018-08-10T12:48:02.906Z,27.31
2018-08-10T12:49:12.059Z,27.28
2018-08-10T12:50:21.882Z,27.31
2018-08-10T12:51:30.927Z,27.31
2018-08-10T12:52:40.084Z,27.32
2018-08-10T12:53:48.975Z,27.31
2018-08-10T12:54:58.651Z,27.31
2018-08-10T12:56:07.567Z,27.31
2018-08-10T12:57:17.139Z,27.34
2018-08-10T12:58:26.296Z,27.31
2018-08-10T12:59:35.258Z,27.22
2018-08-10T13:00:44.407Z,27.31
2018-08-10T13:01:53.834Z,27.24
2018-08-10T13:03:03.567Z,27.24
2018-08-10T13:04:13.007Z,27.31
2018-08-10T13:05:22.190Z,27.37
2018-08-10T13:06:31.617Z,27.34
2018-08-10T13:07:40.808Z,27.29
2018-08-10T13:08:50.246Z,27.34
2018-08-10T13:10:00.207Z,27.32
2018-08-10T13:11:10.160Z,27.29
2018-08-10T13:12:19.063Z,27.34
2018-08-10T13:13:28.472Z,27.32
2018-08-10T13:14:38.145Z,27.34
2018-08-10T13:15:47.553Z,27.34
2018-08-10T13:16:56.447Z,27.31
2018-08-10T13:18:06.386Z,27.36
2018-08-10T13:19:15.273Z,27.36
2018-08-10T13:20:25.190Z,27.36
2018-08-10T13:21:34.872Z,27.34
2018-08-10T13:22:44.296Z,27.34
2018-08-10T13:23:53.883Z,27.32
2018-08-10T13:25:03.487Z,27.36
2018-08-10T13:26:13.147Z,27.29
2018-08-10T13:27:22.568Z,27.41
2018-08-10T13:28:31.518Z,27.32
2018-08-10T13:29:41.667Z,27.44
2018-08-10T13:30:50.828Z,27.32
2018-08-10T13:32:00.008Z,27.39
2018-08-10T13:33:09.682Z,27.36
2018-08-10T13:34:19.365Z,27.41
2018-08-10T13:35:28.845Z,27.4
2018-08-10T13:36:38.613Z,27.39
2018-08-10T13:37:48.267Z,27.39
2018-08-10T13:38:57.678Z,27.37
2018-08-10T13:40:06.828Z,27.4
2018-08-10T13:41:16.226Z,27.37
2018-08-10T13:42:25.654Z,27.39
2018-08-10T13:43:34.581Z,27.43
2018-08-10T13:44:44.740Z,27.36
2018-08-10T13:45:53.935Z,27.36
2018-08-10T13:47:02.859Z,27.39
2018-08-10T13:48:12.264Z,27.4
2018-08-10T13:49:21.677Z,27.37
2018-08-10T13:50:30.588Z,27.36
2018-08-10T13:51:39.513Z,27.44
2018-08-10T13:52:48.915Z,27.4
2018-08-10T13:53:58.581Z,27.44
2018-08-10T13:55:07.485Z,27.44
2018-08-10T13:56:17.192Z,27.34
2018-08-10T13:57:26.858Z,27.39
2018-08-10T13:58:36.082Z,27.32
2018-08-10T13:59:45.254Z,27.36
2018-08-10T14:00:54.680Z,27.44
2018-08-10T14:02:04.404Z,27.41
2018-08-10T14:03:14.085Z,27.34
2018-08-10T14:04:23.488Z,27.46
2018-08-10T14:05:32.906Z,27.51
2018-08-10T14:06:42.696Z,27.49
2018-08-10T14:07:52.108Z,27.43
2018-08-10T14:09:01.533Z,27.47
2018-08-10T14:10:10.692Z,27.5
2018-08-10T14:11:19.848Z,27.55
2018-08-10T14:12:29.001Z,27.51
2018-08-10T14:13:38.414Z,27.51
2018-08-10T14:14:48.104Z,27.49
2018-08-10T14:15:57.529Z,27.54
2018-08-10T14:17:07.835Z,27.54
2018-08-10T14:18:17.243Z,27.5
2018-08-10T14:19:26.398Z,27.51
2018-08-10T14:20:35.831Z,27.51
2018-08-10T14:21:45.229Z,27.47
2018-08-10T14:22:54.645Z,27.57
2018-08-10T14:24:04.329Z,27.54
2018-08-10T14:25:14.001Z,27.51
2018-08-10T14:26:23.726Z,27.55
2018-08-10T14:27:32.909Z,27.55
2018-08-10T14:28:42.076Z,27.54
2018-08-10T14:29:51.756Z,27.57
2018-08-10T14:31:00.917Z,27.55
2018-08-10T14:32:09.819Z,27.55
2018-08-10T14:33:19.044Z,27.59
2018-08-10T14:34:27.980Z,27.59
2018-08-10T14:35:37.397Z,27.59
2018-08-10T14:36:46.561Z,27.55
2018-08-10T14:37:56.015Z,27.54
2018-08-10T14:39:05.178Z,27.55
2018-08-10T14:40:14.369Z,27.57
2018-08-10T14:41:24.689Z,27.57
2018-08-10T14:42:34.195Z,27.57
2018-08-10T14:43:42.846Z,27.55
2018-08-10T14:44:51.763Z,27.59
2018-08-10T14:46:00.937Z,27.51
2018-08-10T14:47:10.701Z,27.47
2018-08-10T14:48:20.706Z,27.49
2018-08-10T14:49:30.409Z,27.54
2018-08-10T14:50:40.073Z,27.55
2018-08-10T14:51:49.228Z,27.54
2018-08-10T14:52:58.912Z,27.49
2018-08-10T14:54:08.338Z,27.57
2018-08-10T14:55:18.024Z,27.57
2018-08-10T14:56:27.458Z,27.54